Terminal Aerodrome Forecast
Issued by NWS

Home | Current Version | Previous Version | Text Only | Print | Product List | Glossary On
Versions: 1 2 3 4 5 6 7 8 9 10 11 12 13 14 15 16
000
FTUS42 KILM 032332
TAFCRE
TAF
KCRE 032332Z 0400/0424 VRB04KT P6SM VCSH SCT025 BKN040 OVC100
     FM040600 VRB03KT 4SM -RA SCT005 BKN025
     FM041300 04006KT P6SM VCSH BKN025
     FM041800 08007KT P6SM VCTS SCT025 OVC050CB=

USA.gov is the U.S. government's official web portal to all federal, state and local government web resources and services.